createdAt,value
2023-01-19T00:26:30.650Z,33.04
2023-01-19T00:46:30.635Z,33.04
2023-01-19T02:46:30.523Z,33.03
2023-01-19T03:06:29.893Z,33.03
2023-01-19T03:26:30.492Z,33.03
2023-01-19T03:46:30.486Z,33.02
2023-01-19T04:06:30.463Z,33.02
2023-01-19T04:26:30.433Z,33.02
2023-01-19T04:46:30.203Z,33.02
2023-01-19T05:06:30.392Z,33.01
2023-01-19T05:26:30.397Z,33.01
2023-01-19T05:46:30.133Z,33.01
2023-01-19T06:06:30.356Z,33.01
2023-01-19T06:26:30.327Z,32.99
2023-01-19T06:46:30.314Z,32.99
2023-01-19T07:06:30.287Z,32.99
2023-01-19T07:26:30.359Z,32.99
2023-01-19T07:46:30.250Z,32.99
2023-01-19T08:06:30.020Z,32.99
2023-01-19T08:26:30.217Z,32.99
2023-01-19T08:46:30.259Z,32.98
2023-01-19T09:06:30.189Z,32.98
2023-01-19T09:26:32.195Z,32.98
2023-01-19T10:06:30.140Z,32.98
2023-01-19T10:26:30.310Z,32.98
2023-01-19T10:46:30.264Z,32.98
2023-01-19T11:06:30.091Z,32.98
2023-01-19T11:26:30.065Z,32.98
2023-01-19T11:46:30.041Z,32.98
2023-01-19T12:06:30.031Z,32.98
2023-01-19T12:26:30.008Z,32.98
2023-01-19T12:46:30.058Z,32.98
2023-01-19T13:06:29.975Z,32.98
2023-01-19T13:26:29.964Z,32.99
2023-01-19T13:46:29.978Z,32.99
2023-01-19T14:06:29.909Z,32.99
2023-01-19T14:26:29.898Z,32.99
2023-01-19T14:46:29.937Z,32.99
2023-01-19T15:06:29.594Z,33
2023-01-19T15:26:29.845Z,33
2023-01-19T15:46:29.825Z,33
2023-01-19T16:06:29.807Z,33
2023-01-19T16:26:29.795Z,33
2023-01-19T16:46:29.770Z,33.01
2023-01-19T17:06:29.744Z,33.01
2023-01-19T17:26:29.462Z,33.01
2023-01-19T17:46:29.834Z,33.01
2023-01-19T18:06:29.693Z,33.02
2023-01-19T18:26:29.677Z,33.02
2023-01-19T18:46:29.675Z,33.02
2023-01-19T19:06:29.625Z,33.03
2023-01-19T19:26:29.603Z,33.03
2023-01-19T19:46:29.348Z,33.03
2023-01-19T20:06:29.552Z,33.03
2023-01-19T20:26:29.556Z,33.03
2023-01-19T20:46:29.552Z,33.04
2023-01-19T21:06:29.522Z,33.04
2023-01-19T21:26:29.250Z,33.05
2023-01-19T21:46:29.766Z,33.05
2023-01-19T22:06:29.472Z,33.05
2023-01-19T22:26:29.454Z,33.05
2023-01-19T22:46:29.498Z,33.05
2023-01-19T23:06:29.411Z,33.05
2023-01-19T23:26:29.399Z,33.05
2023-01-19T23:46:29.429Z,33.05
